Adams, OK (73901)

2:48 PM CDT on September 23, 2014 (GMT -0500)
Liberal Municipal | Change Station
CLOSE
Current Station
Airport
Location: Liberal,
Elevation: 2884 ft
Nearby Weather Stations

Elev 2884 ft 37.04 °N, 100.96 °W | Updated 13 minutes ago

Clear
Clear
90 °F
Feels Like 89 °F
N
20
Wind Variable Wind from SW
Gusts 28 mph

Today
High -- | Low -- °F
--% Chance of Precip.
Yesterday
High -- | Low -- °F
Precip. -- in
7:33 AM 7:39 PM
Waning Crescent, 0% visible
Pressure 30.02 in
Visibility 10.0 miles
Clouds Clear
Heat Index 89 °F
Dew Point 59 °F
Humidity 36%
Rainfall 0.00 in
Snow Depth Not available.
UV 8 out of 12
Pollen 5.10 out of 12
Air Quality Not available.
Flu Activity Not available.
METAR KLBL 231935Z AUTO 22017G24KT 10SM CLR 32/15 A3002 RMK AO1

More Conditions Fewer Conditions

Pressure 30.02 in
Visibility 10.0 miles
Clouds Clear
Heat Index 89 °F
Dew Point 59 °F
Humidity 36%
Rainfall 0.00 in
Snow Depth Not available.
UV 8 out of 12
Pollen 5.10 out of 12
Air Quality Not available.
Flu Activity Not available.
METAR KLBL 231935Z AUTO 22017G24KT 10SM CLR 32/15 A3002 RMK AO1

More Conditions Fewer Conditions

10-Day Weather Forecast

Almanac

Astronomy

Sep. 23, 2014 Rise Set
Actual Time 7:33 AM CDT 7:39 PM CDT
Civil Twilight 7:07 AM CDT 8:05 PM CDT
Nautical Twilight 6:37 AM CDT 8:35 PM CDT
Astronomical Twilight 6:06 AM CDT 9:06 PM CDT
Moon 6:59 AM CDT 7:20 PM CDT
Length of Visible Light 12h 58m
Length of Day
12h 06m
Tomorrow will be 2m 20s shorter.
Waning Crescent, 0% of the Moon is Illuminated
Today
Waning Crescent
Sep 24
New
Oct 1
First Quarter
Oct 8
Full
Oct 15
Last Quarter

Today's Extremes

State Highs State Lows

Community

WunderPhotos

Upload Photos

1,755,788 photos uploaded!

WunderBlogs® & News

Nearby

Snow Depth

Station Depth Elevation
No new snow has been reported.

Earthquake Activity

City Distance Mag. Time & Date
No recent earthquake activity has been reported nearby.
Minimum magnitude displayed is 2.5.

Coastal Water Temperatures

Place Temperature
No Stations Reporting

Nearby Weather Stations